sensor_id;sensor_type;location;lat;lon;timestamp;pressure;altitude;pressure_sealevel;temperature;humidity
45894;BME280;31603;51.148;16.932;2023-11-21T00:01:55;99444.00;;;7.59;100.00
45894;BME280;31603;51.148;16.932;2023-11-21T00:04:22;99444.41;;;7.50;100.00
45894;BME280;31603;51.148;16.932;2023-11-21T00:06:50;99446.91;;;7.51;100.00
45894;BME280;31603;51.148;16.932;2023-11-21T00:09:17;99447.34;;;7.55;100.00
45894;BME280;31603;51.148;16.932;2023-11-21T00:11:45;99438.09;;;7.49;100.00
45894;BME280;31603;51.148;16.932;2023-11-21T00:14:11;99451.34;;;7.59;100.00
45894;BME280;31603;51.148;16.932;2023-11-21T00:16:40;99442.31;;;7.45;100.00
45894;BME280;31603;51.148;16.932;2023-11-21T00:19:07;99453.84;;;7.47;100.00
45894;BME280;31603;51.148;16.932;2023-11-21T00:21:33;99447.34;;;7.48;100.00
45894;BME280;31603;51.148;16.932;2023-11-21T00:24:02;99452.84;;;7.48;100.00
45894;BME280;31603;51.148;16.932;2023-11-21T00:26:28;99444.81;;;7.53;100.00
45894;BME280;31603;51.148;16.932;2023-11-21T00:28:56;99455.34;;;7.56;100.00
45894;BME280;31603;51.148;16.932;2023-11-21T00:31:23;99453.22;;;7.58;100.00
45894;BME280;31603;51.148;16.932;2023-11-21T00:33:50;99459.56;;;7.52;100.00
45894;BME280;31603;51.148;16.932;2023-11-21T00:36:16;99458.28;;;7.61;100.00
45894;BME280;31603;51.148;16.932;2023-11-21T00:38:43;99461.66;;;7.50;100.00
45894;BME280;31603;51.148;16.932;2023-11-21T00:41:11;99460.38;;;7.39;100.00
45894;BME280;31603;51.148;16.932;2023-11-21T00:43:38;99456.59;;;7.47;100.00
45894;BME280;31603;51.148;16.932;2023-11-21T00:46:05;99451.97;;;7.54;100.00
45894;BME280;31603;51.148;16.932;2023-11-21T00:48:32;99452.38;;;7.51;100.00
45894;BME280;31603;51.148;16.932;2023-11-21T00:50:59;99452.41;;;7.44;100.00
45894;BME280;31603;51.148;16.932;2023-11-21T00:53:26;99455.97;;;7.45;100.00
45894;BME280;31603;51.148;16.932;2023-11-21T00:55:53;99448.19;;;7.42;100.00
45894;BME280;31603;51.148;16.932;2023-11-21T00:58:23;99456.19;;;7.50;100.00
45894;BME280;31603;51.148;16.932;2023-11-21T01:00:50;99455.56;;;7.68;100.00
45894;BME280;31603;51.148;16.932;2023-11-21T01:03:17;99453.66;;;7.42;100.00
45894;BME280;31603;51.148;16.932;2023-11-21T01:05:44;99448.81;;;7.44;100.00
45894;BME280;31603;51.148;16.932;2023-11-21T01:08:11;99452.59;;;7.50;100.00
45894;BME280;31603;51.148;16.932;2023-11-21T01:10:37;99453.25;;;7.45;100.00
45894;BME280;31603;51.148;16.932;2023-11-21T01:13:04;99461.66;;;7.50;100.00
45894;BME280;31603;51.148;16.932;2023-11-21T01:15:34;99463.78;;;7.48;100.00
45894;BME280;31603;51.148;16.932;2023-11-21T01:18:00;99464.59;;;7.42;100.00
45894;BME280;31603;51.148;16.932;2023-11-21T01:20:29;99458.50;;;7.53;100.00
45894;BME280;31603;51.148;16.932;2023-11-21T01:22:55;99455.94;;;7.32;100.00
45894;BME280;31603;51.148;16.932;2023-11-21T01:25:22;99460.78;;;7.36;100.00
45894;BME280;31603;51.148;16.932;2023-11-21T01:27:48;99473.00;;;7.47;100.00
45894;BME280;31603;51.148;16.932;2023-11-21T01:30:17;99462.91;;;7.34;100.00
45894;BME280;31603;51.148;16.932;2023-11-21T01:32:45;99467.94;;;7.44;100.00
45894;BME280;31603;51.148;16.932;2023-11-21T01:35:12;99469.00;;;7.43;100.00
45894;BME280;31603;51.148;16.932;2023-11-21T01:37:38;99472.78;;;7.29;100.00
45894;BME280;31603;51.148;16.932;2023-11-21T01:40:06;99473.41;;;7.31;100.00
45894;BME280;31603;51.148;16.932;2023-11-21T01:42:38;99467.53;;;7.34;100.00
45894;BME280;31603;51.148;16.932;2023-11-21T01:45:06;99471.75;;;7.43;100.00
45894;BME280;31603;51.148;16.932;2023-11-21T01:47:33;99468.34;;;7.28;100.00
45894;BME280;31603;51.148;16.932;2023-11-21T01:50:02;99466.91;;;7.45;100.00
45894;BME280;31603;51.148;16.932;2023-11-21T01:52:30;99475.94;;;7.32;100.00
45894;BME280;31603;51.148;16.932;2023-11-21T01:54:58;99473.00;;;7.47;100.00
45894;BME280;31603;51.148;16.932;2023-11-21T01:57:25;99475.53;;;7.35;100.00
45894;BME280;31603;51.148;16.932;2023-11-21T01:59:54;99475.94;;;7.39;100.00
45894;BME280;31603;51.148;16.932;2023-11-21T02:02:20;99470.91;;;7.49;100.00
45894;BME280;31603;51.148;16.932;2023-11-21T02:04:47;99474.28;;;7.51;100.00
45894;BME280;31603;51.148;16.932;2023-11-21T02:07:18;99476.41;;;7.49;100.00
45894;BME280;31603;51.148;16.932;2023-11-21T02:09:45;99480.81;;;7.50;100.00
45894;BME280;31603;51.148;16.932;2023-11-21T02:12:11;99475.34;;;7.63;100.00
45894;BME280;31603;51.148;16.932;2023-11-21T02:14:38;99479.31;;;7.47;100.00
45894;BME280;31603;51.148;16.932;2023-11-21T02:17:05;99479.16;;;7.56;100.00
45894;BME280;31603;51.148;16.932;2023-11-21T02:19:31;99482.06;;;7.47;100.00
45894;BME280;31603;51.148;16.932;2023-11-21T02:21:59;99474.88;;;7.33;100.00
45894;BME280;31603;51.148;16.932;2023-11-21T02:24:31;99476.59;;;7.41;100.00
45894;BME280;31603;51.148;16.932;2023-11-21T02:26:58;99476.38;;;7.36;100.00
45894;BME280;31603;51.148;16.932;2023-11-21T02:29:25;99475.75;;;7.47;100.00
45894;BME280;31603;51.148;16.932;2023-11-21T02:31:54;99490.72;;;7.44;100.00
45894;BME280;31603;51.148;16.932;2023-11-21T02:34:21;99480.78;;;7.37;100.00
45894;BME280;31603;51.148;16.932;2023-11-21T02:36:50;99485.41;;;7.36;100.00
45894;BME280;31603;51.148;16.932;2023-11-21T02:39:17;99482.03;;;7.28;100.00
45894;BME280;31603;51.148;16.932;2023-11-21T02:41:48;99484.38;;;7.44;100.00
45894;BME280;31603;51.148;16.932;2023-11-21T02:44:15;99481.44;;;7.45;100.00
45894;BME280;31603;51.148;16.932;2023-11-21T02:46:42;99480.81;;;7.50;100.00
45894;BME280;31603;51.148;16.932;2023-11-21T02:49:09;99485.66;;;7.48;100.00
45894;BME280;31603;51.148;16.932;2023-11-21T02:51:35;99488.38;;;7.35;100.00
45894;BME280;31603;51.148;16.932;2023-11-21T02:54:03;99490.69;;;7.38;100.00
45894;BME280;31603;51.148;16.932;2023-11-21T02:56:32;99495.31;;;7.44;100.00
45894;BME280;31603;51.148;16.932;2023-11-21T02:59:01;99493.03;;;7.61;100.00
45894;BME280;31603;51.148;16.932;2023-11-21T03:01:27;99497.84;;;7.39;100.00
45894;BME280;31603;51.148;16.932;2023-11-21T03:03:54;99499.13;;;7.56;100.00
45894;BME280;31603;51.148;16.932;2023-11-21T03:06:22;99498.28;;;7.49;100.00
45894;BME280;31603;51.148;16.932;2023-11-21T03:08:49;99503.78;;;7.56;100.00
45894;BME280;31603;51.148;16.932;2023-11-21T03:11:16;99493.25;;;7.59;100.00
45894;BME280;31603;51.148;16.932;2023-11-21T03:13:43;99501.00;;;7.42;100.00
45894;BME280;31603;51.148;16.932;2023-11-21T03:16:12;99497.63;;;7.47;100.00
45894;BME280;31603;51.148;16.932;2023-11-21T03:18:39;99502.06;;;7.41;100.00
45894;BME280;31603;51.148;16.932;2023-11-21T03:21:06;99505.22;;;7.45;100.00
45894;BME280;31603;51.148;16.932;2023-11-21T03:23:34;99502.50;;;7.45;100.00
45894;BME280;31603;51.148;16.932;2023-11-21T03:26:01;99496.13;;;7.31;100.00
45894;BME280;31603;51.148;16.932;2023-11-21T03:28:27;99508.78;;;7.39;100.00
45894;BME280;31603;51.148;16.932;2023-11-21T03:30:55;99505.22;;;7.45;100.00
45894;BME280;31603;51.148;16.932;2023-11-21T03:33:24;99501.41;;;7.39;100.00
45894;BME280;31603;51.148;16.932;2023-11-21T03:35:50;99505.38;;;7.37;100.00
45894;BME280;31603;51.148;16.932;2023-11-21T03:38:18;99502.06;;;7.48;100.00
45894;BME280;31603;51.148;16.932;2023-11-21T03:40:45;99506.69;;;7.41;100.00
45894;BME280;31603;51.148;16.932;2023-11-21T03:43:13;99508.78;;;7.45;100.00
45894;BME280;31603;51.148;16.932;2023-11-21T03:45:40;99502.00;;;7.28;100.00
45894;BME280;31603;51.148;16.932;2023-11-21T03:48:07;99508.78;;;7.39;100.00
45894;BME280;31603;51.148;16.932;2023-11-21T03:50:35;99506.06;;;7.45;100.00
45894;BME280;31603;51.148;16.932;2023-11-21T03:53:02;99508.38;;;7.42;100.00
45894;BME280;31603;51.148;16.932;2023-11-21T03:55:29;99505.41;;;7.43;100.00
45894;BME280;31603;51.148;16.932;2023-11-21T03:57:56;99513.41;;;7.38;100.00
45894;BME280;31603;51.148;16.932;2023-11-21T04:00:23;99515.09;;;7.46;100.00
45894;BME280;31603;51.148;16.932;2023-11-21T04:02:52;99512.38;;;7.46;100.00
45894;BME280;31603;51.148;16.932;2023-11-21T04:05:20;99519.94;;;7.44;100.00
45894;BME280;31603;51.148;16.932;2023-11-21T04:07:48;99518.91;;;7.52;100.00
45894;BME280;31603;51.148;16.932;2023-11-21T04:10:15;99516.78;;;7.47;100.00
45894;BME280;31603;51.148;16.932;2023-11-21T04:12:42;99522.66;;;7.31;100.00
45894;BME280;31603;51.148;16.932;2023-11-21T04:15:10;99514.25;;;7.39;100.00
45894;BME280;31603;51.148;16.932;2023-11-21T04:17:38;99507.97;;;7.45;100.00
45894;BME280;31603;51.148;16.932;2023-11-21T04:20:06;99512.97;;;7.35;100.00
45894;BME280;31603;51.148;16.932;2023-11-21T04:22:36;99523.88;;;7.21;100.00
45894;BME280;31603;51.148;16.932;2023-11-21T04:25:08;99514.19;;;7.26;100.00
45894;BME280;31603;51.148;16.932;2023-11-21T04:27:34;99518.03;;;7.38;100.00
45894;BME280;31603;51.148;16.932;2023-11-21T04:30:01;99520.38;;;7.41;100.00
45894;BME280;31603;51.148;16.932;2023-11-21T04:32:28;99520.50;;;7.26;100.00
45894;BME280;31603;51.148;16.932;2023-11-21T04:34:54;99523.06;;;7.28;100.00
45894;BME280;31603;51.148;16.932;2023-11-21T04:37:21;99524.38;;;7.45;100.00
45894;BME280;31603;51.148;16.932;2023-11-21T04:39:48;99526.66;;;7.35;100.00
45894;BME280;31603;51.148;16.932;2023-11-21T04:42:16;99532.31;;;7.33;100.00
45894;BME280;31603;51.148;16.932;2023-11-21T04:44:42;99535.06;;;7.40;100.00
45894;BME280;31603;51.148;16.932;2023-11-21T04:47:09;99533.16;;;7.27;100.00
45894;BME280;31603;51.148;16.932;2023-11-21T04:49:36;99542.84;;;7.36;100.00
45894;BME280;31603;51.148;16.932;2023-11-21T04:52:03;99537.34;;;7.30;100.00
45894;BME280;31603;51.148;16.932;2023-11-21T04:54:30;99547.03;;;7.26;100.00
45894;BME280;31603;51.148;16.932;2023-11-21T04:56:57;99552.31;;;7.27;100.00
45894;BME280;31603;51.148;16.932;2023-11-21T04:59:25;99551.25;;;7.28;100.00
45894;BME280;31603;51.148;16.932;2023-11-21T05:01:52;99555.50;;;7.37;100.00
45894;BME280;31603;51.148;16.932;2023-11-21T05:04:19;99551.91;;;7.30;100.00
45894;BME280;31603;51.148;16.932;2023-11-21T05:06:47;99542.19;;;7.21;100.00
45894;BME280;31603;51.148;16.932;2023-11-21T05:09:14;99556.28;;;7.24;100.00
45894;BME280;31603;51.148;16.932;2023-11-21T05:11:41;99565.16;;;7.27;100.00
45894;BME280;31603;51.148;16.932;2023-11-21T05:14:08;99552.94;;;7.29;100.00
45894;BME280;31603;51.148;16.932;2023-11-21T05:16:36;99557.97;;;7.26;100.00
45894;BME280;31603;51.148;16.932;2023-11-21T05:19:03;99556.06;;;7.26;100.00
45894;BME280;31603;51.148;16.932;2023-11-21T05:21:31;99563.84;;;7.22;100.00
45894;BME280;31603;51.148;16.932;2023-11-21T05:23:58;99559.03;;;7.24;100.00
45894;BME280;31603;51.148;16.932;2023-11-21T05:26:25;99564.72;;;7.23;100.00
45894;BME280;31603;51.148;16.932;2023-11-21T05:28:51;99570.59;;;7.20;100.00
45894;BME280;31603;51.148;16.932;2023-11-21T05:31:18;99561.94;;;7.16;100.00
45894;BME280;31603;51.148;16.932;2023-11-21T05:33:47;99566.16;;;7.26;100.00
45894;BME280;31603;51.148;16.932;2023-11-21T05:36:13;99564.72;;;7.36;100.00
45894;BME280;31603;51.148;16.932;2023-11-21T05:38:40;99560.91;;;7.24;100.00
45894;BME280;31603;51.148;16.932;2023-11-21T05:41:07;99567.69;;;7.35;100.00
45894;BME280;31603;51.148;16.932;2023-11-21T05:43:36;99574.44;;;7.39;100.00
45894;BME280;31603;51.148;16.932;2023-11-21T05:46:03;99575.25;;;7.33;100.00
45894;BME280;31603;51.148;16.932;2023-11-21T05:48:29;99581.78;;;7.32;100.00
45894;BME280;31603;51.148;16.932;2023-11-21T05:50:58;99574.44;;;7.39;100.00
45894;BME280;31603;51.148;16.932;2023-11-21T05:53:27;99571.88;;;7.31;100.00
45894;BME280;31603;51.148;16.932;2023-11-21T05:55:53;99585.78;;;7.36;100.00
45894;BME280;31603;51.148;16.932;2023-11-21T05:58:20;99578.69;;;7.48;100.00
45894;BME280;31603;51.148;16.932;2023-11-21T06:00:47;99577.81;;;7.41;100.00
45894;BME280;31603;51.148;16.932;2023-11-21T06:03:13;99589.97;;;7.32;100.00
45894;BME280;31603;51.148;16.932;2023-11-21T06:05:40;99591.91;;;7.38;100.00
45894;BME280;31603;51.148;16.932;2023-11-21T06:08:08;99585.22;;;7.60;100.00
45894;BME280;31603;51.148;16.932;2023-11-21T06:10:36;99594.22;;;7.41;100.00
45894;BME280;31603;51.148;16.932;2023-11-21T06:13:04;99596.34;;;7.45;100.00
45894;BME280;31603;51.148;16.932;2023-11-21T06:15:32;99596.97;;;7.41;100.00
45894;BME280;31603;51.148;16.932;2023-11-21T06:17:59;99596.31;;;7.39;100.00
45894;BME280;31603;51.148;16.932;2023-11-21T06:20:26;99597.38;;;7.38;100.00
45894;BME280;31603;51.148;16.932;2023-11-21T06:22:53;99609.63;;;7.07;100.00
45894;BME280;31603;51.148;16.932;2023-11-21T06:25:21;99608.91;;;7.27;100.00
45894;BME280;31603;51.148;16.932;2023-11-21T06:27:49;99620.88;;;7.19;100.00
45894;BME280;31603;51.148;16.932;2023-11-21T06:30:17;99628.22;;;7.25;100.00
45894;BME280;31603;51.148;16.932;2023-11-21T06:32:45;99628.31;;;7.38;100.00
45894;BME280;31603;51.148;16.932;2023-11-21T06:35:12;99630.81;;;7.40;100.00
45894;BME280;31603;51.148;16.932;2023-11-21T06:37:40;99622.44;;;7.41;100.00
45894;BME280;31603;51.148;16.932;2023-11-21T06:40:12;99627.63;;;7.30;100.00
45894;BME280;31603;51.148;16.932;2023-11-21T06:42:41;99626.16;;;7.27;100.00
45894;BME280;31603;51.148;16.932;2023-11-21T06:45:09;99627.94;;;7.48;100.00
45894;BME280;31603;51.148;16.932;2023-11-21T06:47:36;99639.44;;;7.30;100.00
45894;BME280;31603;51.148;16.932;2023-11-21T06:50:03;99639.06;;;7.46;100.00
45894;BME280;31603;51.148;16.932;2023-11-21T06:52:32;99638.34;;;7.24;100.00
45894;BME280;31603;51.148;16.932;2023-11-21T06:58:04;99648.84;;;7.21;100.00
45894;BME280;31603;51.148;16.932;2023-11-21T07:01:07;99643.72;;;7.11;100.00
45894;BME280;31603;51.148;16.932;2023-11-21T07:16:24;99644.78;;;7.58;100.00
45894;BME280;31603;51.148;16.932;2023-11-21T07:18:57;99649.22;;;7.59;100.00
45894;BME280;31603;51.148;16.932;2023-11-21T07:21:24;99650.25;;;7.58;100.00
45894;BME280;31603;51.148;16.932;2023-11-21T07:23:50;99653.03;;;7.65;100.00
45894;BME280;31603;51.148;16.932;2023-11-21T07:26:17;99648.00;;;7.75;100.00
45894;BME280;31603;51.148;16.932;2023-11-21T07:28:45;99650.78;;;7.95;100.00
45894;BME280;31603;51.148;16.932;2023-11-21T07:31:12;99649.53;;;7.97;100.00
45894;BME280;31603;51.148;16.932;2023-11-21T07:33:39;99653.31;;;7.90;100.00
45894;BME280;31603;51.148;16.932;2023-11-21T07:36:07;99644.44;;;7.75;100.00
45894;BME280;31603;51.148;16.932;2023-11-21T07:38:33;99649.94;;;7.94;100.00
45894;BME280;31603;51.148;16.932;2023-11-21T07:41:00;99648.22;;;7.74;100.00
45894;BME280;31603;51.148;16.932;2023-11-21T07:43:28;99655.56;;;7.66;100.00
45894;BME280;31603;51.148;16.932;2023-11-21T07:46:01;99655.72;;;7.52;100.00
45894;BME280;31603;51.148;16.932;2023-11-21T07:48:29;99657.06;;;7.76;100.00
45894;BME280;31603;51.148;16.932;2023-11-21T07:50:55;99657.50;;;7.79;100.00
45894;BME280;31603;51.148;16.932;2023-11-21T07:53:22;99652.81;;;7.73;100.00
45894;BME280;31603;51.148;16.932;2023-11-21T07:55:49;99655.53;;;7.60;100.00
45894;BME280;31603;51.148;16.932;2023-11-21T07:58:15;99659.50;;;7.51;100.00
45894;BME280;31603;51.148;16.932;2023-11-21T08:00:42;99659.28;;;7.45;100.00
45894;BME280;31603;51.148;16.932;2023-11-21T08:03:10;99654.94;;;7.71;100.00
45894;BME280;31603;51.148;16.932;2023-11-21T08:05:37;99667.06;;;7.55;100.00
45894;BME280;31603;51.148;16.932;2023-11-21T08:08:04;99662.72;;;7.67;100.00
45894;BME280;31603;51.148;16.932;2023-11-21T08:10:30;99667.88;;;7.97;100.00
45894;BME280;31603;51.148;16.932;2023-11-21T08:12:57;99667.66;;;8.05;100.00
45894;BME280;31603;51.148;16.932;2023-11-21T08:15:24;99672.28;;;7.98;100.00
45894;BME280;31603;51.148;16.932;2023-11-21T08:17:50;99669.53;;;7.85;100.00
45894;BME280;31603;51.148;16.932;2023-11-21T08:20:18;99671.03;;;8.01;100.00
45894;BME280;31603;51.148;16.932;2023-11-21T08:22:45;99677.53;;;7.93;100.00
45894;BME280;31603;51.148;16.932;2023-11-21T08:25:13;99683.66;;;7.95;100.00
45894;BME280;31603;51.148;16.932;2023-11-21T08:27:39;99672.47;;;7.90;100.00
45894;BME280;31603;51.148;16.932;2023-11-21T08:30:06;99676.94;;;8.04;100.00
45894;BME280;31603;51.148;16.932;2023-11-21T08:32:33;99676.50;;;7.94;100.00
45894;BME280;31603;51.148;16.932;2023-11-21T08:35:01;99678.00;;;8.16;100.00
45894;BME280;31603;51.148;16.932;2023-11-21T08:37:29;99674.84;;;8.19;100.00
45894;BME280;31603;51.148;16.932;2023-11-21T08:39:58;99673.22;;;8.32;100.00
45894;BME280;31603;51.148;16.932;2023-11-21T08:42:25;99686.25;;;8.30;100.00
45894;BME280;31603;51.148;16.932;2023-11-21T08:44:54;99674.88;;;8.26;100.00
45894;BME280;31603;51.148;16.932;2023-11-21T08:47:23;99681.44;;;8.32;100.00
45894;BME280;31603;51.148;16.932;2023-11-21T08:49:52;99681.38;;;8.12;100.00
45894;BME280;31603;51.148;16.932;2023-11-21T08:52:19;99674.41;;;8.03;100.00
45894;BME280;31603;51.148;16.932;2023-11-21T08:54:49;99672.72;;;8.08;100.00
45894;BME280;31603;51.148;16.932;2023-11-21T08:57:21;99677.63;;;8.26;100.00
45894;BME280;31603;51.148;16.932;2023-11-21T08:59:48;99673.16;;;8.05;100.00
45894;BME280;31603;51.148;16.932;2023-11-21T09:02:20;99681.19;;;8.13;100.00
45894;BME280;31603;51.148;16.932;2023-11-21T09:04:48;99679.44;;;7.92;100.00
45894;BME280;31603;51.148;16.932;2023-11-21T09:07:14;99677.16;;;8.03;100.00
45894;BME280;31603;51.148;16.932;2023-11-21T09:09:41;99681.16;;;8.07;100.00
45894;BME280;31603;51.148;16.932;2023-11-21T09:12:09;99681.81;;;8.15;100.00
45894;BME280;31603;51.148;16.932;2023-11-21T09:14:36;99673.66;;;8.49;100.00
45894;BME280;31603;51.148;16.932;2023-11-21T09:17:03;99677.88;;;8.38;100.00
45894;BME280;31603;51.148;16.932;2023-11-21T09:19:29;99671.09;;;8.34;100.00
45894;BME280;31603;51.148;16.932;2023-11-21T09:21:56;99675.28;;;8.10;100.00
45894;BME280;31603;51.148;16.932;2023-11-21T09:24:23;99681.81;;;8.15;100.00
45894;BME280;31603;51.148;16.932;2023-11-21T09:26:51;99686.72;;;8.40;100.00
45894;BME280;31603;51.148;16.932;2023-11-21T09:29:19;99694.97;;;8.40;100.00
45894;BME280;31603;51.148;16.932;2023-11-21T09:31:45;99690.31;;;8.47;100.00
45894;BME280;31603;51.148;16.932;2023-11-21T09:34:12;99692.22;;;8.53;100.00
45894;BME280;31603;51.148;16.932;2023-11-21T09:36:40;99695.94;;;8.26;100.00
45894;BME280;31603;51.148;16.932;2023-11-21T09:39:07;99691.09;;;8.34;100.00
45894;BME280;31603;51.148;16.932;2023-11-21T09:41:41;99682.31;;;8.52;100.00
45894;BME280;31603;51.148;16.932;2023-11-21T09:44:13;99686.75;;;8.47;100.00
45894;BME280;31603;51.148;16.932;2023-11-21T09:46:42;99692.44;;;8.58;100.00
45894;BME280;31603;51.148;16.932;2023-11-21T09:49:09;99695.59;;;8.82;100.00
45894;BME280;31603;51.148;16.932;2023-11-21T09:51:39;99698.78;;;8.79;100.00
45894;BME280;31603;51.148;16.932;2023-11-21T09:54:07;99698.34;;;8.68;100.00
45894;BME280;31603;51.148;16.932;2023-11-21T09:56:35;99695.59;;;8.55;100.00
45894;BME280;31603;51.148;16.932;2023-11-21T09:59:03;99694.31;;;8.71;100.00
45894;BME280;31603;51.148;16.932;2023-11-21T10:01:32;99698.31;;;8.49;100.00
45894;BME280;31603;51.148;16.932;2023-11-21T10:04:00;99696.44;;;8.56;100.00
45894;BME280;31603;51.148;16.932;2023-11-21T10:06:28;99694.34;;;8.64;100.00
45894;BME280;31603;51.148;16.932;2023-11-21T10:08:56;99696.47;;;8.76;100.00
45894;BME280;31603;51.148;16.932;2023-11-21T10:11:25;99704.69;;;8.82;100.00
45894;BME280;31603;51.148;16.932;2023-11-21T10:13:53;99701.94;;;8.76;100.00
45894;BME280;31603;51.148;16.932;2023-11-21T10:16:23;99704.66;;;8.49;100.00
45894;BME280;31603;51.148;16.932;2023-11-21T10:18:53;99709.91;;;8.37;100.00
45894;BME280;31603;51.148;16.932;2023-11-21T10:21:22;99714.50;;;8.37;100.00
45894;BME280;31603;51.148;16.932;2023-11-21T10:23:49;99719.22;;;8.70;100.00
45894;BME280;31603;51.148;16.932;2023-11-21T10:26:18;99716.47;;;8.70;100.00
45894;BME280;31603;51.148;16.932;2023-11-21T10:28:55;99719.00;;;8.58;100.00
45894;BME280;31603;51.148;16.932;2023-11-21T10:31:22;99712.47;;;8.39;100.00
45894;BME280;31603;51.148;16.932;2023-11-21T10:33:50;99713.31;;;8.66;100.00
45894;BME280;31603;51.148;16.932;2023-11-21T10:36:26;99718.13;;;8.44;100.00
45894;BME280;31603;51.148;16.932;2023-11-21T10:38:54;99717.38;;;8.02;100.00
45894;BME280;31603;51.148;16.932;2023-11-21T10:41:22;99716.50;;;7.95;100.00
45894;BME280;31603;51.148;16.932;2023-11-21T10:43:53;99726.03;;;7.99;100.00
45894;BME280;31603;51.148;16.932;2023-11-21T10:46:20;99721.56;;;7.98;100.00
45894;BME280;31603;51.148;16.932;2023-11-21T10:48:52;99729.69;;;7.71;100.00
45894;BME280;31603;51.148;16.932;2023-11-21T10:51:20;99720.38;;;7.59;100.00
45894;BME280;31603;51.148;16.932;2023-11-21T10:53:48;99719.84;;;7.77;100.00
45894;BME280;31603;51.148;16.932;2023-11-21T10:56:18;99732.50;;;7.85;100.00
45894;BME280;31603;51.148;16.932;2023-11-21T10:58:48;99736.03;;;7.79;100.00
45894;BME280;31603;51.148;16.932;2023-11-21T11:01:18;99732.03;;;7.75;100.00
45894;BME280;31603;51.148;16.932;2023-11-21T11:03:47;99743.16;;;7.73;100.00
45894;BME280;31603;51.148;16.932;2023-11-21T11:06:14;99732.00;;;7.68;100.00
45894;BME280;31603;51.148;16.932;2023-11-21T11:08:41;99738.56;;;7.74;100.00
45894;BME280;31603;51.148;16.932;2023-11-21T11:11:09;99744.25;;;7.37;100.00
45894;BME280;31603;51.148;16.932;2023-11-21T11:13:39;99747.09;;;7.57;100.00
45894;BME280;31603;51.148;16.932;2023-11-21T11:16:09;99744.56;;;7.62;100.00
45894;BME280;31603;51.148;16.932;2023-11-21T11:18:36;99735.22;;;7.43;100.00
45894;BME280;31603;51.148;16.932;2023-11-21T11:21:13;99735.38;;;7.35;100.00
45894;BME280;31603;51.148;16.932;2023-11-21T11:23:57;99743.16;;;7.32;100.00
45894;BME280;31603;51.148;16.932;2023-11-21T11:26:39;99742.03;;;7.26;100.00
45894;BME280;31603;51.148;16.932;2023-11-21T11:29:15;99741.22;;;7.26;100.00
45894;BME280;31603;51.148;16.932;2023-11-21T11:31:53;99751.81;;;7.07;100.00
45894;BME280;31603;51.148;16.932;2023-11-21T11:34:28;99748.88;;;6.81;100.00
45894;BME280;31603;51.148;16.932;2023-11-21T11:37:00;99755.84;;;6.62;100.00
45894;BME280;31603;51.148;16.932;2023-11-21T11:39:29;99755.19;;;6.60;100.00
45894;BME280;31603;51.148;16.932;2023-11-21T11:41:59;99760.88;;;6.37;100.00
45894;BME280;31603;51.148;16.932;2023-11-21T11:44:50;99771.25;;;6.26;100.00
45894;BME280;31603;51.148;16.932;2023-11-21T11:47:22;99778.78;;;6.24;100.00
45894;BME280;31603;51.148;16.932;2023-11-21T11:50:02;99780.88;;;6.22;100.00
45894;BME280;31603;51.148;16.932;2023-11-21T11:52:40;99778.09;;;6.01;100.00
45894;BME280;31603;51.148;16.932;2023-11-21T11:55:09;99775.81;;;5.90;100.00
45894;BME280;31603;51.148;16.932;2023-11-21T11:57:38;99779.19;;;5.92;100.00
45894;BME280;31603;51.148;16.932;2023-11-21T12:00:13;99783.75;;;5.85;100.00
45894;BME280;31603;51.148;16.932;2023-11-21T12:02:46;99781.13;;;5.62;100.00
45894;BME280;31603;51.148;16.932;2023-11-21T12:05:15;99791.47;;;5.66;100.00
45894;BME280;31603;51.148;16.932;2023-11-21T12:07:45;99795.78;;;5.75;100.00
45894;BME280;31603;51.148;16.932;2023-11-21T12:10:13;99794.13;;;5.74;100.00
45894;BME280;31603;51.148;16.932;2023-11-21T12:12:45;99795.78;;;5.75;100.00
45894;BME280;31603;51.148;16.932;2023-11-21T12:15:12;99796.16;;;5.87;100.00
45894;BME280;31603;51.148;16.932;2023-11-21T12:17:40;99800.88;;;5.78;100.00
45894;BME280;31603;51.148;16.932;2023-11-21T12:20:09;99797.47;;;5.76;100.00
45894;BME280;31603;51.148;16.932;2023-11-21T12:22:42;99802.78;;;5.63;100.00
45894;BME280;31603;51.148;16.932;2023-11-21T12:25:09;99800.13;;;5.55;100.00
45894;BME280;31603;51.148;16.932;2023-11-21T12:27:40;99810.53;;;5.37;100.00
45894;BME280;31603;51.148;16.932;2023-11-21T12:30:12;99812.31;;;5.29;100.00
45894;BME280;31603;51.148;16.932;2023-11-21T12:32:41;99808.94;;;5.27;100.00
45894;BME280;31603;51.148;16.932;2023-11-21T12:35:09;99818.50;;;5.09;100.00
45894;BME280;31603;51.148;16.932;2023-11-21T12:37:36;99814.84;;;5.16;100.00
45894;BME280;31603;51.148;16.932;2023-11-21T12:40:05;99821.25;;;5.09;100.00
45894;BME280;31603;51.148;16.932;2023-11-21T12:42:33;99823.69;;;4.80;100.00
45894;BME280;31603;51.148;16.932;2023-11-21T12:45:08;99830.09;;;4.65;100.00
45894;BME280;31603;51.148;16.932;2023-11-21T12:47:41;99835.78;;;4.78;100.00
45894;BME280;31603;51.148;16.932;2023-11-21T12:50:09;99840.38;;;4.77;100.00
45894;BME280;31603;51.148;16.932;2023-11-21T12:52:43;99842.50;;;4.67;100.00
45894;BME280;31603;51.148;16.932;2023-11-21T12:55:16;99855.16;;;4.60;100.00
45894;BME280;31603;51.148;16.932;2023-11-21T12:57:44;99847.66;;;4.62;100.00
45894;BME280;31603;51.148;16.932;2023-11-21T13:00:13;99854.19;;;4.53;100.00
45894;BME280;31603;51.148;16.932;2023-11-21T13:02:54;99866.78;;;4.54;100.00
45894;BME280;31603;51.148;16.932;2023-11-21T13:05:26;99870.50;;;4.53;100.00
45894;BME280;31603;51.148;16.932;2023-11-21T13:07:55;99862.03;;;4.48;100.00
45894;BME280;31603;51.148;16.932;2023-11-21T13:10:23;99872.91;;;4.25;100.00
45894;BME280;31603;51.148;16.932;2023-11-21T13:12:55;99879.91;;;4.19;100.00